Time;durP1;ratioP1;P1;durP2;ratioP2;P2;SDS_P1;SDS_P2;PMS_P1;PMS_P2;Temp;Humidity;BMP_temperature;BMP_pressure;BME280_temperature;BME280_humidity;BME280_pressure;Samples;Min_cycle;Max_cycle;Signal;HPM_P1;HPM_P2
2021/08/26 00:01:18;;;;;;;3.30;2.60;;;15.60;99.90;;;;;;5091061;28;20703;-71
2021/08/26 00:06:30;;;;;;;3.57;3.17;;;15.40;99.90;;;;;;5090525;28;20190;-72
2021/08/26 00:08:57;;;;;;;6.23;3.00;;;15.40;99.90;;;;;;5090673;28;20664;-72
2021/08/26 00:11:25;;;;;;;5.90;3.10;;;15.30;99.90;;;;;;5090736;28;20218;-71
2021/08/26 00:13:54;;;;;;;3.20;2.63;;;15.30;99.90;;;;;;5090954;28;20209;-72
2021/08/26 00:16:23;;;;;;;4.67;2.73;;;15.30;99.90;;;;;;5090611;28;20510;-72
2021/08/26 00:18:50;;;;;;;2.93;2.60;;;15.30;99.90;;;;;;5090776;28;20260;-72
2021/08/26 00:21:17;;;;;;;3.40;3.10;;;15.30;99.90;;;;;;5090090;28;20680;-72
2021/08/26 00:23:45;;;;;;;3.10;2.80;;;15.30;99.90;;;;;;5090164;28;20230;-72
2021/08/26 00:26:12;;;;;;;5.37;2.93;;;15.30;99.90;;;;;;5090729;28;20242;-72
2021/08/26 00:28:39;;;;;;;4.13;2.70;;;15.40;99.90;;;;;;5090256;28;20668;-72
2021/08/26 00:31:06;;;;;;;4.40;2.53;;;15.40;99.90;;;;;;5090369;28;20210;-72
2021/08/26 00:33:33;;;;;;;4.73;2.60;;;15.40;99.90;;;;;;5090179;28;20206;-72
2021/08/26 00:35:59;;;;;;;4.97;2.53;;;15.40;99.90;;;;;;5090266;28;20211;-72
2021/08/26 00:38:26;;;;;;;5.40;2.53;;;15.50;99.90;;;;;;5090280;28;20687;-71
2021/08/26 00:40:59;;;;;;;5.93;2.57;;;15.40;99.90;;;;;;5090255;28;20256;-71
2021/08/26 00:43:26;;;;;;;4.63;2.40;;;15.40;99.90;;;;;;5089674;28;20195;-70
2021/08/26 00:45:53;;;;;;;6.87;2.77;;;15.30;99.90;;;;;;5090200;28;20206;-70
2021/08/26 00:48:21;;;;;;;5.17;2.73;;;15.40;99.90;;;;;;5089987;28;20218;-70
2021/08/26 00:50:49;;;;;;;7.40;2.70;;;15.40;99.90;;;;;;5090170;28;20298;-70
2021/08/26 00:53:16;;;;;;;5.97;2.77;;;15.30;99.90;;;;;;5089876;28;20250;-70
2021/08/26 00:55:43;;;;;;;5.77;2.60;;;15.30;99.90;;;;;;5089910;28;20191;-70
2021/08/26 00:58:11;;;;;;;6.07;2.87;;;15.30;99.90;;;;;;5089975;28;20267;-71
2021/08/26 01:00:39;;;;;;;5.30;2.80;;;15.30;99.90;;;;;;5089381;28;20258;-70
2021/08/26 01:03:10;;;;;;;8.73;3.00;;;15.30;99.90;;;;;;5089567;28;20234;-70
2021/08/26 01:05:44;;;;;;;4.67;3.10;;;15.30;99.90;;;;;;5089444;28;20221;-70
2021/08/26 01:08:14;;;;;;;6.00;3.10;;;15.30;99.90;;;;;;5090032;28;20202;-70
2021/08/26 01:10:42;;;;;;;5.27;2.83;;;15.30;99.90;;;;;;5089725;28;20299;-70
2021/08/26 01:13:11;;;;;;;7.07;3.00;;;15.30;99.90;;;;;;5089787;28;20246;-70
2021/08/26 01:15:38;;;;;;;3.67;2.73;;;15.30;99.90;;;;;;5107726;28;20201;-72
2021/08/26 01:18:05;;;;;;;5.93;2.80;;;15.30;99.90;;;;;;5110037;28;20286;-72
2021/08/26 01:20:32;;;;;;;7.17;3.70;;;15.40;99.90;;;;;;5109589;28;20222;-72
2021/08/26 01:22:58;;;;;;;5.53;3.13;;;15.40;99.90;;;;;;5109895;28;20263;-72
2021/08/26 01:25:28;;;;;;;8.37;3.80;;;15.40;99.90;;;;;;5109524;27;20236;-72
2021/08/26 01:28:00;;;;;;;7.53;3.40;;;15.30;99.90;;;;;;5109833;28;20251;-73
2021/08/26 01:30:30;;;;;;;5.57;2.97;;;15.30;99.90;;;;;;5109554;28;20607;-73
2021/08/26 01:33:00;;;;;;;10.93;3.27;;;15.30;99.90;;;;;;5109684;28;20321;-74
2021/08/26 01:35:27;;;;;;;7.00;2.97;;;15.30;99.90;;;;;;5109505;28;20205;-73
2021/08/26 01:37:53;;;;;;;7.33;3.30;;;15.30;99.90;;;;;;5109568;28;20241;-74
2021/08/26 01:40:35;;;;;;;6.67;3.47;;;15.30;99.90;;;;;;5109515;28;20210;-74
2021/08/26 01:43:04;;;;;;;7.50;3.60;;;15.20;99.90;;;;;;5109422;28;20257;-73
2021/08/26 01:45:31;;;;;;;8.60;3.53;;;15.20;99.90;;;;;;5109368;28;20258;-73
2021/08/26 01:47:57;;;;;;;7.23;3.47;;;15.20;99.90;;;;;;5109285;28;20679;-74
2021/08/26 01:50:24;;;;;;;6.70;3.63;;;15.10;99.90;;;;;;5109345;28;20210;-74
2021/08/26 01:52:51;;;;;;;7.63;4.10;;;15.10;99.90;;;;;;5109040;28;20944;-73
2021/08/26 01:55:18;;;;;;;5.93;3.57;;;15.00;99.90;;;;;;5108919;28;20322;-73
2021/08/26 01:57:44;;;;;;;9.60;3.83;;;15.00;99.90;;;;;;5109172;28;20202;-74
2021/08/26 02:00:15;;;;;;;10.50;3.53;;;15.00;99.90;;;;;;5109229;28;20222;-74
2021/08/26 02:02:41;;;;;;;9.73;4.20;;;15.10;99.90;;;;;;5109257;28;20222;-73
2021/08/26 02:05:09;;;;;;;9.00;4.10;;;15.10;99.90;;;;;;5109277;28;20214;-73
2021/08/26 02:07:35;;;;;;;8.73;3.60;;;15.10;99.90;;;;;;5109049;28;20291;-73
2021/08/26 02:10:02;;;;;;;7.53;3.20;;;15.10;99.90;;;;;;5109025;28;20229;-74
2021/08/26 02:12:28;;;;;;;9.13;3.87;;;15.10;99.90;;;;;;5108347;28;20252;-71
2021/08/26 02:14:55;;;;;;;9.33;3.80;;;15.00;99.90;;;;;;5109056;28;20206;-71
2021/08/26 02:17:23;;;;;;;7.83;3.50;;;15.00;99.90;;;;;;5109221;28;20241;-72
2021/08/26 02:19:50;;;;;;;10.67;3.83;;;15.00;99.90;;;;;;5108896;28;20664;-72
2021/08/26 02:22:16;;;;;;;11.87;4.10;;;14.90;99.90;;;;;;5108625;28;20671;-72
2021/08/26 02:24:43;;;;;;;10.43;4.20;;;14.90;99.90;;;;;;5108769;28;20307;-72
2021/08/26 02:27:09;;;;;;;8.83;3.87;;;14.90;99.90;;;;;;5109036;28;20234;-72
2021/08/26 02:29:36;;;;;;;9.30;4.13;;;14.90;99.90;;;;;;5108913;28;20206;-72
2021/08/26 02:32:03;;;;;;;10.17;3.70;;;14.90;99.90;;;;;;5108926;28;20345;-72
2021/08/26 02:34:31;;;;;;;7.60;4.07;;;14.90;99.90;;;;;;5108686;28;20205;-72
2021/08/26 02:36:57;;;;;;;8.70;3.70;;;15.00;99.90;;;;;;5108724;28;20238;-72
2021/08/26 02:39:24;;;;;;;9.57;3.93;;;14.90;99.90;;;;;;5108075;28;20552;-70
2021/08/26 02:41:51;;;;;;;13.73;4.67;;;14.90;99.90;;;;;;5095752;28;20708;-72
2021/08/26 02:44:17;;;;;;;13.33;4.60;;;14.90;99.90;;;;;;5108064;28;20267;-72
2021/08/26 02:46:44;;;;;;;9.07;4.00;;;14.80;99.90;;;;;;5097845;28;20198;-72
2021/08/26 02:49:11;;;;;;;11.13;4.63;;;14.80;99.90;;;;;;5103812;28;20704;-72
2021/08/26 02:51:38;;;;;;;11.60;4.20;;;14.80;99.90;;;;;;5103992;28;20236;-72
2021/08/26 02:54:05;;;;;;;10.27;4.07;;;14.90;99.90;;;;;;5104220;28;20645;-72
2021/08/26 02:56:32;;;;;;;10.80;4.37;;;14.90;99.90;;;;;;5104099;28;20672;-72
2021/08/26 02:58:58;;;;;;;13.70;4.93;;;14.90;99.90;;;;;;5104517;28;20570;-72
2021/08/26 03:01:25;;;;;;;11.73;4.20;;;14.90;99.90;;;;;;5104942;28;20238;-72
2021/08/26 03:03:51;;;;;;;11.20;5.17;;;14.90;99.90;;;;;;5104661;28;20672;-73
2021/08/26 03:06:18;;;;;;;12.43;4.73;;;14.90;99.90;;;;;;5104655;28;20290;-73
2021/08/26 03:08:46;;;;;;;13.00;4.50;;;14.90;99.90;;;;;;5104720;28;20616;-72
2021/08/26 03:11:13;;;;;;;12.30;4.70;;;15.00;99.90;;;;;;5104490;28;20668;-72
2021/08/26 03:13:39;;;;;;;12.13;4.83;;;14.90;99.90;;;;;;5104541;28;20242;-72
2021/08/26 03:16:06;;;;;;;11.80;4.47;;;14.90;99.90;;;;;;5104368;28;20613;-75
2021/08/26 03:18:33;;;;;;;11.10;4.20;;;14.80;99.90;;;;;;5103811;28;20661;-71
2021/08/26 03:21:00;;;;;;;13.43;4.50;;;14.80;99.90;;;;;;5104220;28;20214;-72
2021/08/26 03:23:27;;;;;;;11.40;4.43;;;14.90;99.90;;;;;;5106297;28;20701;-72
2021/08/26 03:25:54;;;;;;;15.57;4.60;;;14.90;99.90;;;;;;5107719;28;20288;-72
2021/08/26 03:28:21;;;;;;;12.83;4.57;;;14.80;99.90;;;;;;5097157;28;20226;-72
2021/08/26 03:30:49;;;;;;;14.20;4.60;;;14.70;99.90;;;;;;5098774;28;20194;-72
2021/08/26 03:33:16;;;;;;;13.73;4.90;;;14.70;99.90;;;;;;5106538;28;20242;-72
2021/08/26 03:35:43;;;;;;;13.93;4.80;;;14.70;99.90;;;;;;5107829;28;20303;-72
2021/08/26 03:38:09;;;;;;;12.43;5.00;;;14.60;99.90;;;;;;5108108;28;20613;-72
2021/08/26 03:40:36;;;;;;;19.47;5.03;;;14.60;99.90;;;;;;5108052;27;20244;-72
2021/08/26 03:43:04;;;;;;;12.37;4.33;;;14.70;99.90;;;;;;5109419;28;20265;-72
2021/08/26 03:45:31;;;;;;;15.53;5.27;;;14.70;99.90;;;;;;5108728;28;20202;-72
2021/08/26 03:47:57;;;;;;;16.53;5.70;;;14.70;99.90;;;;;;5108795;28;20259;-72
2021/08/26 03:50:24;;;;;;;12.53;5.23;;;14.80;99.90;;;;;;5108713;28;20903;-72
2021/08/26 03:52:51;;;;;;;13.83;5.57;;;14.70;99.90;;;;;;5109327;28;20259;-72
2021/08/26 03:55:17;;;;;;;12.47;5.47;;;14.70;99.90;;;;;;5109272;28;20241;-72
2021/08/26 03:57:44;;;;;;;15.73;4.57;;;14.60;99.90;;;;;;5110818;28;20236;-72
2021/08/26 04:00:13;;;;;;;17.97;5.73;;;14.60;99.90;;;;;;5111349;28;20206;-72
2021/08/26 04:02:40;;;;;;;18.87;5.47;;;14.60;99.90;;;;;;5111316;28;20665;-72
2021/08/26 04:05:07;;;;;;;13.23;5.80;;;14.60;99.90;;;;;;5110984;28;20728;-72
2021/08/26 04:07:33;;;;;;;16.67;5.10;;;14.60;99.90;;;;;;5111155;28;20210;-73
2021/08/26 04:10:00;;;;;;;12.63;5.27;;;14.60;99.90;;;;;;5110994;28;20245;-72
2021/08/26 04:12:27;;;;;;;15.77;5.17;;;14.70;99.90;;;;;;5111186;28;20255;-72
2021/08/26 04:14:54;;;;;;;19.23;5.73;;;14.80;99.90;;;;;;5110865;28;20212;-72
2021/08/26 04:17:22;;;;;;;15.77;6.33;;;14.90;99.90;;;;;;5110964;28;20211;-72
2021/08/26 04:19:49;;;;;;;21.83;6.13;;;14.90;99.90;;;;;;5110814;28;20644;-72
2021/08/26 04:22:15;;;;;;;19.60;5.53;;;15.00;99.90;;;;;;5110715;28;20222;-72
2021/08/26 04:24:42;;;;;;;11.67;4.77;;;15.00;99.90;;;;;;5110694;28;20226;-72
2021/08/26 04:27:12;;;;;;;16.37;5.63;;;15.00;99.90;;;;;;5110880;28;20202;-72
2021/08/26 04:29:38;;;;;;;15.47;6.23;;;15.00;99.90;;;;;;5110812;28;20345;-72
2021/08/26 04:32:06;;;;;;;14.60;5.43;;;15.00;99.90;;;;;;5110913;28;20283;-72
2021/08/26 04:34:34;;;;;;;16.80;5.53;;;15.10;99.90;;;;;;5109401;28;20206;-72
2021/08/26 04:37:01;;;;;;;14.50;5.50;;;15.10;99.90;;;;;;5110717;28;20206;-72
2021/08/26 04:39:27;;;;;;;16.00;5.57;;;15.10;99.90;;;;;;5110659;28;20210;-72
2021/08/26 04:41:54;;;;;;;14.17;5.50;;;15.00;99.90;;;;;;5110934;28;20210;-72
2021/08/26 04:44:20;;;;;;;16.87;5.47;;;14.90;99.90;;;;;;5110340;28;20241;-72
2021/08/26 04:46:47;;;;;;;15.20;6.00;;;15.00;99.90;;;;;;5110328;28;20267;-72
2021/08/26 04:49:14;;;;;;;18.23;6.87;;;14.90;99.90;;;;;;5110581;28;20282;-72
2021/08/26 04:51:42;;;;;;;16.60;5.60;;;14.90;99.90;;;;;;5110171;28;20202;-72
2021/08/26 04:54:08;;;;;;;20.47;6.50;;;14.90;99.90;;;;;;5110281;28;20318;-72
2021/08/26 04:56:35;;;;;;;15.57;5.73;;;14.90;99.90;;;;;;5110337;28;20263;-72
2021/08/26 04:59:02;;;;;;;16.77;6.13;;;14.80;99.90;;;;;;5110443;28;20287;-72
2021/08/26 05:01:28;;;;;;;19.20;6.67;;;14.80;99.90;;;;;;5110566;28;20202;-72
2021/08/26 05:03:55;;;;;;;13.53;5.77;;;15.00;99.90;;;;;;5110160;28;20275;-72
2021/08/26 05:06:21;;;;;;;19.13;5.77;;;15.00;99.90;;;;;;5109946;28;20684;-72
2021/08/26 05:08:49;;;;;;;16.40;5.83;;;15.00;99.90;;;;;;5109985;28;20206;-72
2021/08/26 05:11:19;;;;;;;18.27;5.83;;;15.10;99.90;;;;;;5110083;28;20310;-72
2021/08/26 05:13:46;;;;;;;15.07;5.87;;;15.10;99.90;;;;;;5110086;28;20255;-72
2021/08/26 05:16:13;;;;;;;15.33;5.67;;;14.90;99.90;;;;;;5109981;28;20202;-72
2021/08/26 05:18:40;;;;;;;17.43;6.43;;;14.90;99.90;;;;;;5109739;28;20202;-72
2021/08/26 05:21:06;;;;;;;16.70;5.90;;;14.90;99.90;;;;;;5109924;28;20230;-72
2021/08/26 05:23:34;;;;;;;19.70;6.37;;;14.90;99.90;;;;;;5109869;28;20242;-72
2021/08/26 05:26:02;;;;;;;24.27;6.10;;;14.90;99.90;;;;;;5109876;28;20202;-72
2021/08/26 05:28:29;;;;;;;15.33;6.27;;;14.90;99.90;;;;;;5109547;28;20550;-72
2021/08/26 05:30:56;;;;;;;16.67;5.83;;;14.90;99.90;;;;;;5109691;28;20218;-72
2021/08/26 05:33:22;;;;;;;18.53;6.40;;;14.90;99.90;;;;;;5109637;28;20255;-72
2021/08/26 05:35:49;;;;;;;17.83;6.47;;;14.80;99.90;;;;;;5109364;28;20510;-72
2021/08/26 05:38:15;;;;;;;20.67;6.90;;;14.80;99.90;;;;;;5107383;28;20231;-72
2021/08/26 05:40:42;;;;;;;19.33;6.80;;;14.90;99.90;;;;;;5096090;28;20281;-72
2021/08/26 05:43:10;;;;;;;16.00;6.93;;;14.80;99.90;;;;;;5109270;28;20257;-72
2021/08/26 05:45:36;;;;;;;17.07;7.00;;;14.90;99.90;;;;;;5109202;28;20198;-72
2021/08/26 05:48:03;;;;;;;18.93;7.10;;;14.80;99.90;;;;;;5109468;28;20202;-72
2021/08/26 05:50:30;;;;;;;21.33;6.70;;;14.90;99.90;;;;;;5109381;28;20262;-72
2021/08/26 05:52:56;;;;;;;19.17;6.53;;;14.90;99.90;;;;;;5109287;28;20216;-72
2021/08/26 05:55:23;;;;;;;13.47;5.90;;;15.00;99.90;;;;;;5109320;28;20259;-72
2021/08/26 05:57:50;;;;;;;16.60;6.30;;;15.10;99.90;;;;;;5109166;28;20292;-72
2021/08/26 06:00:18;;;;;;;21.00;7.23;;;15.10;99.90;;;;;;5109141;28;20229;-72
2021/08/26 06:02:45;;;;;;;18.70;6.37;;;15.00;99.90;;;;;;5108776;28;20286;-72
2021/08/26 06:05:12;;;;;;;19.07;6.73;;;15.00;99.90;;;;;;5108885;28;20237;-72
2021/08/26 06:07:39;;;;;;;21.67;7.57;;;15.10;99.90;;;;;;5109028;28;20221;-72
2021/08/26 06:10:07;;;;;;;16.07;6.50;;;15.10;99.90;;;;;;5109117;28;20202;-72
2021/08/26 06:12:34;;;;;;;20.97;6.87;;;15.10;99.90;;;;;;5109031;28;20248;-72
2021/08/26 06:15:02;;;;;;;17.17;6.50;;;15.10;99.90;;;;;;5108728;28;20208;-72
2021/08/26 06:17:30;;;;;;;16.13;6.27;;;15.10;99.90;;;;;;5108706;28;20599;-72
2021/08/26 06:19:57;;;;;;;19.03;6.83;;;15.20;99.90;;;;;;5108986;28;20635;-72
2021/08/26 06:22:23;;;;;;;18.13;7.00;;;15.20;99.90;;;;;;5108488;28;20359;-72
2021/08/26 06:24:50;;;;;;;20.83;6.57;;;15.20;99.90;;;;;;5108780;28;20226;-72
2021/08/26 06:27:16;;;;;;;20.30;6.03;;;15.30;99.90;;;;;;5108817;28;20614;-72
2021/08/26 06:29:43;;;;;;;21.00;6.67;;;15.30;99.90;;;;;;5108911;28;20278;-72
2021/08/26 06:32:10;;;;;;;16.83;6.30;;;15.40;99.90;;;;;;5108861;28;20216;-72
2021/08/26 06:34:38;;;;;;;21.07;6.87;;;15.50;99.90;;;;;;5108943;28;20354;-72
2021/08/26 06:37:04;;;;;;;14.50;5.83;;;15.60;99.90;;;;;;5108849;28;20258;-72
2021/08/26 06:39:31;;;;;;;18.20;6.13;;;15.60;99.90;;;;;;5108766;28;20213;-72
2021/08/26 06:41:58;;;;;;;16.67;6.03;;;15.60;99.90;;;;;;5108491;28;20286;-72
2021/08/26 06:44:24;;;;;;;21.97;6.03;;;15.50;99.90;;;;;;5108614;28;20222;-72
2021/08/26 06:46:51;;;;;;;17.27;6.00;;;15.60;99.90;;;;;;5108104;28;20664;-72
2021/08/26 06:49:18;;;;;;;15.63;6.33;;;15.70;99.90;;;;;;5108754;28;20206;-72
2021/08/26 06:51:45;;;;;;;18.07;5.80;;;15.70;99.90;;;;;;5108267;28;20210;-72
2021/08/26 06:54:12;;;;;;;16.80;6.17;;;15.70;99.90;;;;;;5108499;28;20294;-72
2021/08/26 06:56:41;;;;;;;18.23;5.80;;;15.70;99.90;;;;;;5108512;28;20267;-72
2021/08/26 06:59:08;;;;;;;17.40;5.87;;;15.70;99.90;;;;;;5112411;28;20316;-72
2021/08/26 07:01:35;;;;;;;17.63;6.17;;;15.90;99.90;;;;;;5112457;28;20609;-72
2021/08/26 07:04:01;;;;;;;15.33;5.53;;;15.70;99.90;;;;;;5112067;28;20658;-72
2021/08/26 07:06:29;;;;;;;15.30;5.67;;;15.80;99.90;;;;;;5112574;27;20241;-72
2021/08/26 07:08:58;;;;;;;14.63;5.90;;;15.80;99.90;;;;;;5112406;28;20206;-72
2021/08/26 07:11:24;;;;;;;12.30;5.40;;;15.90;99.90;;;;;;5112377;28;20292;-72
2021/08/26 07:13:51;;;;;;;20.93;5.10;;;16.00;99.90;;;;;;5112349;28;20226;-72
2021/08/26 07:16:17;;;;;;;16.67;4.60;;;16.00;99.90;;;;;;5112172;28;20202;-72
2021/08/26 07:18:44;;;;;;;15.03;4.77;;;16.00;99.90;;;;;;5112314;28;20209;-72
2021/08/26 07:21:11;;;;;;;15.07;4.37;;;16.10;99.90;;;;;;5112138;28;20226;-72
2021/08/26 07:23:38;;;;;;;10.77;3.77;;;16.20;99.90;;;;;;5112350;28;20234;-72
2021/08/26 07:26:06;;;;;;;16.30;4.07;;;16.30;99.90;;;;;;5112230;28;20310;-72
2021/08/26 07:28:32;;;;;;;8.37;3.47;;;16.40;99.90;;;;;;5112441;28;20239;-72
2021/08/26 07:30:59;;;;;;;9.67;4.07;;;16.40;99.90;;;;;;5112212;28;20210;-72
2021/08/26 07:33:26;;;;;;;9.70;3.77;;;16.40;99.90;;;;;;5111830;28;20202;-72
2021/08/26 07:35:54;;;;;;;12.90;4.20;;;16.50;99.90;;;;;;5112021;28;20202;-72
2021/08/26 07:38:20;;;;;;;8.20;3.13;;;16.70;99.90;;;;;;5111695;28;20288;-72
2021/08/26 07:40:47;;;;;;;9.73;4.03;;;16.70;99.90;;;;;;5111591;28;20276;-72
2021/08/26 07:43:15;;;;;;;7.20;3.80;;;16.80;99.90;;;;;;5111730;28;20291;-72
2021/08/26 07:45:42;;;;;;;9.07;3.17;;;16.80;99.90;;;;;;5111739;28;20254;-72
2021/08/26 07:48:09;;;;;;;8.13;3.30;;;16.90;99.90;;;;;;5111875;28;20263;-72
2021/08/26 07:50:35;;;;;;;12.83;3.70;;;16.90;99.90;;;;;;5111398;28;20206;-72
2021/08/26 07:53:02;;;;;;;11.10;3.67;;;17.00;99.90;;;;;;5111436;28;20210;-72
2021/08/26 07:55:28;;;;;;;9.93;3.50;;;17.10;99.90;;;;;;5111636;28;20628;-72
2021/08/26 07:57:55;;;;;;;9.97;3.70;;;17.00;99.90;;;;;;5111341;28;20283;-72
2021/08/26 08:00:23;;;;;;;9.07;3.33;;;16.80;99.90;;;;;;5111539;28;20247;-72
2021/08/26 08:02:49;;;;;;;9.13;2.93;;;16.80;99.90;;;;;;5111044;28;20721;-72
2021/08/26 08:05:16;;;;;;;6.20;2.70;;;16.80;99.90;;;;;;5111210;28;20261;-72
2021/08/26 08:07:45;;;;;;;8.23;3.13;;;16.90;99.90;;;;;;5111228;28;20669;-72
2021/08/26 08:10:12;;;;;;;6.10;3.23;;;16.90;99.90;;;;;;5109857;28;20209;-72
2021/08/26 08:12:38;;;;;;;5.13;2.70;;;17.10;99.90;;;;;;5111337;28;20371;-72
2021/08/26 08:15:07;;;;;;;10.50;2.97;;;17.10;99.90;;;;;;5111011;28;20205;-72
2021/08/26 08:17:35;;;;;;;4.50;2.80;;;17.10;99.90;;;;;;5111071;28;20205;-72
2021/08/26 08:20:02;;;;;;;7.77;2.90;;;17.20;99.90;;;;;;5111017;28;20287;-72
2021/08/26 08:22:28;;;;;;;5.20;3.53;;;17.20;99.90;;;;;;5110922;28;20245;-72
2021/08/26 08:24:55;;;;;;;8.50;2.80;;;17.20;99.90;;;;;;5110799;28;20273;-72
2021/08/26 08:27:22;;;;;;;5.17;2.80;;;17.20;99.90;;;;;;5110703;28;20198;-72
2021/08/26 08:29:49;;;;;;;5.97;2.60;;;17.30;99.90;;;;;;5110314;28;20276;-72
2021/08/26 08:32:16;;;;;;;7.30;2.50;;;17.40;99.90;;;;;;5110922;28;20198;-72
2021/08/26 08:34:43;;;;;;;6.00;2.13;;;17.50;99.90;;;;;;5110826;28;20723;-72
2021/08/26 08:37:10;;;;;;;5.07;2.10;;;17.70;99.90;;;;;;5110601;28;20267;-72
2021/08/26 08:39:37;;;;;;;4.87;2.40;;;17.80;99.90;;;;;;5110999;28;20572;-72
2021/08/26 08:42:04;;;;;;;4.03;2.23;;;17.80;99.90;;;;;;5110642;28;20230;-71
2021/08/26 08:44:30;;;;;;;4.43;1.93;;;17.80;99.90;;;;;;5110904;28;20225;-72
2021/08/26 08:46:59;;;;;;;10.23;2.63;;;17.70;99.90;;;;;;5110457;28;20206;-72
2021/08/26 08:49:29;;;;;;;4.50;1.67;;;17.60;99.90;;;;;;5110716;28;20208;-72
2021/08/26 08:51:57;;;;;;;4.93;2.27;;;17.60;99.90;;;;;;5110373;28;20190;-73
2021/08/26 08:54:25;;;;;;;3.37;1.53;;;17.50;99.90;;;;;;5110199;28;20637;-73
2021/08/26 08:56:52;;;;;;;7.23;1.90;;;17.50;99.90;;;;;;5110330;28;20599;-73
2021/08/26 08:59:18;;;;;;;4.53;1.90;;;17.40;99.90;;;;;;5110220;28;20322;-71
2021/08/26 09:01:51;;;;;;;3.73;1.77;;;17.40;99.90;;;;;;5110203;28;20206;-71
2021/08/26 09:04:18;;;;;;;5.40;1.97;;;17.40;99.90;;;;;;5110189;28;20218;-71
2021/08/26 09:06:46;;;;;;;7.47;1.90;;;17.40;99.90;;;;;;5110024;28;20202;-71
2021/08/26 09:09:15;;;;;;;2.13;1.70;;;17.50;99.90;;;;;;5109805;28;20584;-71
2021/08/26 09:11:49;;;;;;;1.70;1.50;;;17.60;99.90;;;;;;5109973;28;20297;-71
2021/08/26 09:14:16;;;;;;;3.83;2.00;;;17.60;99.90;;;;;;5110254;28;20197;-71
2021/08/26 09:16:46;;;;;;;2.40;1.47;;;17.60;99.90;;;;;;5110101;28;20206;-71
2021/08/26 09:19:25;;;;;;;3.20;1.77;;;17.60;99.90;;;;;;5109994;28;20226;-71
2021/08/26 09:21:52;;;;;;;4.57;1.90;;;17.60;99.90;;;;;;5109320;28;20218;-71
2021/08/26 09:24:20;;;;;;;6.13;2.20;;;17.60;99.90;;;;;;5109334;28;20248;-71
2021/08/26 09:26:48;;;;;;;1.73;1.53;;;17.50;99.90;;;;;;5109594;28;20231;-71
2021/08/26 09:29:15;;;;;;;6.03;3.80;;;17.20;99.90;;;;;;5109748;28;20206;-71
2021/08/26 09:31:44;;;;;;;2.80;1.43;;;17.00;99.90;;;;;;5109710;28;20209;-71
2021/08/26 09:34:13;;;;;;;3.60;1.40;;;16.70;99.90;;;;;;5109628;28;20206;-71
2021/08/26 09:36:52;;;;;;;2.90;1.47;;;16.80;99.90;;;;;;5109569;28;20214;-71
2021/08/26 09:39:21;;;;;;;1.83;1.23;;;16.90;99.90;;;;;;5109605;28;20190;-71
2021/08/26 09:41:50;;;;;;;3.17;1.53;;;17.10;99.90;;;;;;5109408;28;20202;-71
2021/08/26 09:44:18;;;;;;;3.63;1.33;;;17.30;99.90;;;;;;5109455;28;20237;-71
2021/08/26 09:46:46;;;;;;;5.47;1.80;;;17.30;99.90;;;;;;5109546;28;20209;-71
2021/08/26 09:49:14;;;;;;;1.97;1.30;;;17.40;99.90;;;;;;5109048;28;20687;-71
2021/08/26 09:51:42;;;;;;;3.87;1.37;;;17.40;99.90;;;;;;5109384;28;20253;-71
2021/08/26 09:54:31;;;;;;;2.17;1.30;;;17.40;99.90;;;;;;5108864;28;20716;-71
2021/08/26 09:56:57;;;;;;;2.10;1.27;;;17.10;99.90;;;;;;5108884;28;20696;-71
2021/08/26 09:59:43;;;;;;;2.30;1.10;;;17.00;99.90;;;;;;5109130;28;20213;-71
2021/08/26 10:02:10;;;;;;;3.73;1.10;;;16.90;99.90;;;;;;5109302;28;20623;-71
2021/08/26 10:04:38;;;;;;;0.87;0.83;;;16.90;99.90;;;;;;5109305;28;20245;-71
2021/08/26 10:07:05;;;;;;;5.57;1.70;;;16.90;99.90;;;;;;5109117;28;20202;-71
2021/08/26 10:09:33;;;;;;;5.00;2.47;;;16.90;99.90;;;;;;5109230;28;20213;-71
2021/08/26 10:12:00;;;;;;;4.40;2.13;;;16.40;99.90;;;;;;5108985;28;20271;-71
2021/08/26 10:14:27;;;;;;;7.33;2.60;;;15.90;99.90;;;;;;5108845;28;20231;-71
2021/08/26 10:16:54;;;;;;;6.97;2.40;;;15.80;99.90;;;;;;5108784;28;20610;-71
2021/08/26 10:19:23;;;;;;;3.23;2.20;;;15.80;99.90;;;;;;5108837;28;20226;-71
2021/08/26 10:21:50;;;;;;;5.03;2.60;;;15.70;99.90;;;;;;5108729;28;20218;-71
2021/08/26 10:24:19;;;;;;;4.63;2.47;;;15.50;99.90;;;;;;5108628;28;20248;-71
2021/08/26 10:26:51;;;;;;;3.73;2.10;;;15.60;99.90;;;;;;5108573;28;20621;-71
2021/08/26 10:29:21;;;;;;;4.83;2.33;;;15.50;99.90;;;;;;5108979;28;20604;-72
2021/08/26 10:31:53;;;;;;;9.47;2.73;;;15.60;99.90;;;;;;5107742;28;20584;-72
2021/08/26 10:34:23;;;;;;;3.87;1.97;;;15.40;99.90;;;;;;5108558;28;20674;-72
2021/08/26 10:37:19;;;;;;;3.13;1.53;;;15.40;99.90;;;;;;5109004;28;20552;-72
2021/08/26 10:39:46;;;;;;;2.57;1.70;;;15.30;99.90;;;;;;5108202;28;20620;-72
2021/08/26 10:42:41;;;;;;;3.87;1.70;;;15.20;99.90;;;;;;5108608;28;20425;-71
2021/08/26 10:45:09;;;;;;;2.23;2.03;;;15.20;99.90;;;;;;5108411;28;20222;-72
2021/08/26 10:48:11;;;;;;;4.40;2.40;;;15.30;99.90;;;;;;5108461;28;20827;-72
2021/08/26 10:50:39;;;;;;;2.13;1.83;;;15.40;99.90;;;;;;5108597;28;20281;-72
2021/08/26 10:53:09;;;;;;;2.10;1.90;;;15.60;99.90;;;;;;5108287;28;20202;-71
2021/08/26 10:55:39;;;;;;;2.03;1.20;;;15.70;99.90;;;;;;5108538;28;20195;-71
2021/08/26 10:58:36;;;;;;;3.47;1.20;;;15.80;99.90;;;;;;5108326;28;20218;-71
2021/08/26 11:01:05;;;;;;;2.10;1.20;;;15.90;99.90;;;;;;5108248;28;20198;-71
2021/08/26 11:03:53;;;;;;;2.20;1.37;;;16.00;99.90;;;;;;5108301;28;20214;-71
2021/08/26 11:06:41;;;;;;;2.30;1.30;;;16.20;99.90;;;;;;5107987;28;20617;-72
2021/08/26 11:09:37;;;;;;;2.43;1.00;;;16.40;99.90;;;;;;5108633;28;20194;-72
2021/08/26 11:12:23;;;;;;;1.77;1.20;;;16.60;99.90;;;;;;5108437;28;20194;-72
2021/08/26 11:14:52;;;;;;;1.53;0.73;;;16.80;99.90;;;;;;5108633;28;20197;-72
2021/08/26 11:17:31;;;;;;;1.10;1.00;;;17.00;99.90;;;;;;5108047;28;20209;-72
2021/08/26 11:19:58;;;;;;;3.10;1.03;;;17.30;99.90;;;;;;5107908;28;20313;-72
2021/08/26 11:22:25;;;;;;;1.53;1.17;;;17.50;99.90;;;;;;5108009;28;20278;-72
2021/08/26 11:24:59;;;;;;;0.87;0.70;;;17.80;99.90;;;;;;5108278;28;20226;-72
2021/08/26 11:27:31;;;;;;;0.80;0.80;;;17.80;99.90;;;;;;5108288;28;20288;-72
2021/08/26 11:30:15;;;;;;;2.33;0.93;;;17.60;99.90;;;;;;5107973;28;20808;-71
2021/08/26 11:32:41;;;;;;;1.30;0.80;;;17.50;99.90;;;;;;5108361;27;20201;-71
2021/08/26 11:35:08;;;;;;;0.60;0.60;;;17.20;99.90;;;;;;5108240;28;20206;-71
2021/08/26 11:37:36;;;;;;;0.43;0.40;;;17.20;99.90;;;;;;5108003;28;20202;-71
2021/08/26 11:40:05;;;;;;;1.80;0.60;;;17.10;99.90;;;;;;5108203;28;20202;-71
2021/08/26 11:42:34;;;;;;;0.83;0.63;;;16.90;99.90;;;;;;5108051;28;20297;-71
2021/08/26 11:45:20;;;;;;;1.30;0.57;;;16.70;99.90;;;;;;5111309;28;20298;-71
2021/08/26 11:47:49;;;;;;;1.53;0.50;;;16.40;99.90;;;;;;5112011;28;20190;-71
2021/08/26 11:50:19;;;;;;;2.43;0.70;;;16.50;99.90;;;;;;5111396;28;20237;-71
2021/08/26 11:52:48;;;;;;;0.77;0.77;;;16.30;99.90;;;;;;5111511;28;20210;-71
2021/08/26 11:55:15;;;;;;;2.10;0.67;;;16.20;99.90;;;;;;5110996;28;20611;-71
2021/08/26 11:57:43;;;;;;;2.57;1.00;;;16.40;99.90;;;;;;5111140;28;20230;-71
2021/08/26 12:00:13;;;;;;;4.23;0.50;;;16.50;99.90;;;;;;5111463;28;20289;-71
2021/08/26 12:02:41;;;;;;;0.90;0.53;;;16.70;99.90;;;;;;5111949;28;20206;-71
2021/08/26 12:05:11;;;;;;;2.67;1.00;;;16.90;99.90;;;;;;5110663;28;20704;-71
2021/08/26 12:07:39;;;;;;;1.07;0.80;;;16.70;99.90;;;;;;5110933;28;20206;-71
2021/08/26 12:10:09;;;;;;;0.87;0.67;;;16.90;99.90;;;;;;5111373;28;20326;-71
2021/08/26 12:12:36;;;;;;;2.03;0.87;;;17.20;99.90;;;;;;5111013;28;20664;-71
2021/08/26 12:15:04;;;;;;;1.83;0.80;;;17.40;99.90;;;;;;5111285;27;20259;-71
2021/08/26 12:17:34;;;;;;;0.70;0.50;;;17.60;99.90;;;;;;5111154;28;20260;-71
2021/08/26 12:20:07;;;;;;;2.10;0.60;;;17.60;99.90;;;;;;5110647;28;20804;-71
2021/08/26 12:22:34;;;;;;;0.97;0.57;;;17.70;99.90;;;;;;5110854;28;20589;-71
2021/08/26 12:25:02;;;;;;;0.73;0.60;;;17.80;99.90;;;;;;5110952;28;20218;-71
2021/08/26 12:27:31;;;;;;;1.43;0.50;;;17.90;99.90;;;;;;5111042;28;20292;-71
2021/08/26 12:29:59;;;;;;;0.93;0.43;;;18.10;99.90;;;;;;5111016;28;20213;-71
2021/08/26 12:32:34;;;;;;;1.97;0.80;;;18.30;99.90;;;;;;5110717;28;20304;-71
2021/08/26 12:35:20;;;;;;;1.00;0.40;;;18.40;99.90;;;;;;5110841;28;20205;-71
2021/08/26 12:37:56;;;;;;;0.50;0.33;;;18.60;99.90;;;;;;5110976;28;20194;-71
2021/08/26 12:40:25;;;;;;;1.97;0.37;;;18.80;99.90;;;;;;5110720;28;20198;-71
2021/08/26 12:43:05;;;;;;;1.67;0.50;;;19.00;99.90;;;;;;5110394;28;20209;-72
2021/08/26 12:45:34;;;;;;;1.73;0.50;;;19.00;99.90;;;;;;5110299;28;20222;-73
2021/08/26 12:48:22;;;;;;;2.13;0.87;;;19.10;99.90;;;;;;5110035;28;20285;-73
2021/08/26 12:51:05;;;;;;;0.80;0.50;;;19.00;99.90;;;;;;5097513;28;20198;-72
2021/08/26 12:53:32;;;;;;;2.10;0.47;;;19.00;99.90;;;;;;5110226;28;20242;-72